Avon Lake, Ohio
Current Conditions -  °F | °C
As of 9:51 PM on Saturday 20 Dec 2014 (Local Time) from KCLE Reporting Station
Overcast Overcast  
Wind Chill: 30°   Ceiling: 2700
Heat Index: 30°   Visibility: 10mi
Dew Point: 22°   Wind: 3mph
Humidity: 72%   Direction: 240°WSW
Pressure: 30.32"   Gusts: NA
Location:  41.51°N, 82.02°W
Report Text: KCLE 210251Z 24003KT 10SM OVC027 M01/M06 A3032 RMK AO2 SLP275 T10111056 51005 $
Loading
Personal Weather Stations






























Interactive Weather Map New forecast layout! Learn more

10-Day Weather Forecast

Advertisements
Track Severe Weather on mobile